createdAt,value
2022-12-09T00:00:30.086Z,12.30
2022-12-09T00:02:58.223Z,20.77
2022-12-09T00:05:25.613Z,15.65
2022-12-09T00:07:52.522Z,16.27
2022-12-09T00:10:19.351Z,16.38
2022-12-09T00:12:46.313Z,13.10
2022-12-09T00:15:13.130Z,14.85
2022-12-09T00:17:40.010Z,15.63
2022-12-09T00:20:07.900Z,17.95
2022-12-09T00:22:34.901Z,21.17
2022-12-09T00:25:01.833Z,19.13
2022-12-09T00:27:28.844Z,14.82
2022-12-09T00:29:56.031Z,21.55
2022-12-09T00:32:23.080Z,18.95
2022-12-09T00:34:50.015Z,18.58
2022-12-09T00:37:17.069Z,18.27
2022-12-09T00:39:43.982Z,20.15
2022-12-09T00:42:10.787Z,21.63
2022-12-09T00:44:37.522Z,20.00
2022-12-09T00:47:04.498Z,16.60
2022-12-09T00:49:31.271Z,20.00
2022-12-09T00:51:58.060Z,20.30
2022-12-09T00:54:25.219Z,15.98
2022-12-09T00:56:51.963Z,15.50
2022-12-09T00:59:18.700Z,21.65
2022-12-09T01:01:45.559Z,18.70
2022-12-09T01:04:12.747Z,17.55
2022-12-09T01:06:39.583Z,17.02
2022-12-09T01:09:06.646Z,21.10
2022-12-09T01:11:33.449Z,19.55
2022-12-09T01:14:03.077Z,20.95
2022-12-09T01:16:32.509Z,22.65
2022-12-09T01:19:01.800Z,21.13
2022-12-09T01:21:30.002Z,21.92
2022-12-09T01:23:56.899Z,21.20
2022-12-09T01:26:24.172Z,25.10
2022-12-09T01:28:52.964Z,19.88
2022-12-09T01:31:23.315Z,22.20
2022-12-09T01:33:50.663Z,23.63
2022-12-09T01:36:24.543Z,23.55
2022-12-09T01:38:52.050Z,23.20
2022-12-09T01:41:20.807Z,24.98
2022-12-09T01:44:07.512Z,23.15
2022-12-09T01:46:34.713Z,21.25
2022-12-09T01:49:01.793Z,21.85
2022-12-09T01:51:30.475Z,20.40
2022-12-09T01:53:57.848Z,25.20
2022-12-09T01:56:32.892Z,21.05
2022-12-09T01:59:04.206Z,23.02
2022-12-09T02:01:31.421Z,21.75
2022-12-09T02:03:58.997Z,20.55
2022-12-09T02:06:25.884Z,25.88
2022-12-09T02:08:54.063Z,23.70
2022-12-09T02:11:42.631Z,23.83
2022-12-09T02:14:25.726Z,20.23
2022-12-09T02:20:02.661Z,24.42
2022-12-09T02:22:38.465Z,21.55
2022-12-09T02:25:22.568Z,21.25
2022-12-09T02:28:04.479Z,22.83
2022-12-09T02:30:54.929Z,22.17
2022-12-09T02:33:34.500Z,25.42
2022-12-09T02:36:08.748Z,21.70
2022-12-09T02:38:38.248Z,24.63
2022-12-09T02:41:14.432Z,21.02
2022-12-09T02:43:50.128Z,23.17
2022-12-09T02:46:20.758Z,18.92
2022-12-09T02:48:59.294Z,22.55
2022-12-09T02:51:29.798Z,19.92
2022-12-09T02:54:07.030Z,21.92
2022-12-09T02:56:35.014Z,18.60
2022-12-09T02:59:01.950Z,20.92
2022-12-09T03:02:04.623Z,21.95
2022-12-09T03:04:32.342Z,20.50
2022-12-09T03:07:17.791Z,21.90
2022-12-09T03:09:48.387Z,21.27
2022-12-09T03:12:20.025Z,21.70
2022-12-09T03:14:52.784Z,19.17
2022-12-09T03:17:27.563Z,24.90
2022-12-09T03:19:58.899Z,21.90
2022-12-09T03:22:29.355Z,20.38
2022-12-09T03:25:04.876Z,19.80
2022-12-09T03:27:40.577Z,20.85
2022-12-09T03:30:09.854Z,21.52
2022-12-09T03:32:38.664Z,19.88
2022-12-09T03:35:10.837Z,16.73
2022-12-09T03:37:40.732Z,23.27
2022-12-09T03:40:14.069Z,20.90
2022-12-09T03:43:21.496Z,18.10
2022-12-09T03:45:49.050Z,18.15
2022-12-09T03:48:16.151Z,17.40
2022-12-09T03:50:53.023Z,14.43
2022-12-09T03:53:31.221Z,19.80
2022-12-09T03:56:15.349Z,17.90
2022-12-09T03:58:45.192Z,16.33
2022-12-09T04:01:12.917Z,17.83
2022-12-09T04:03:40.022Z,19.52
2022-12-09T04:06:07.499Z,17.73
2022-12-09T04:08:34.573Z,19.48
2022-12-09T04:11:01.517Z,21.98
2022-12-09T04:13:28.323Z,21.58
2022-12-09T04:15:55.414Z,18.23
2022-12-09T04:18:22.477Z,20.20
2022-12-09T04:20:49.611Z,20.05
2022-12-09T04:23:16.448Z,19.08
2022-12-09T04:25:43.278Z,20.33
2022-12-09T04:28:10.271Z,18.55
2022-12-09T04:30:37.381Z,18.85
2022-12-09T04:33:04.539Z,17.00
2022-12-09T04:35:31.295Z,19.08
2022-12-09T04:37:58.053Z,21.23
2022-12-09T04:40:25.110Z,17.80
2022-12-09T04:42:52.133Z,20.95
2022-12-09T04:45:19.114Z,20.20
2022-12-09T04:47:45.903Z,21.80
2022-12-09T04:50:13.963Z,23.85
2022-12-09T04:52:41.769Z,18.38
2022-12-09T04:55:09.939Z,21.25
2022-12-09T04:57:37.018Z,22.38
2022-12-09T05:00:07.155Z,21.40
2022-12-09T05:02:34.942Z,19.30
2022-12-09T05:05:02.058Z,18.17
2022-12-09T05:07:31.439Z,19.17
2022-12-09T05:09:59.180Z,21.65
2022-12-09T05:12:26.440Z,18.85
2022-12-09T05:14:53.494Z,17.95
2022-12-09T05:17:20.532Z,16.58
2022-12-09T05:19:48.017Z,16.63
2022-12-09T05:22:17.812Z,19.17
2022-12-09T05:24:46.801Z,18.75
2022-12-09T05:27:14.927Z,18.00
2022-12-09T05:29:41.891Z,17.58
2022-12-09T05:32:09.108Z,18.00
2022-12-09T05:34:36.556Z,16.50
2022-12-09T05:37:03.716Z,16.85
2022-12-09T05:39:31.017Z,19.60
2022-12-09T05:41:58.235Z,16.08
2022-12-09T05:44:25.177Z,16.40
2022-12-09T05:46:52.762Z,17.27
2022-12-09T05:49:19.718Z,17.70
2022-12-09T05:51:46.677Z,18.73
2022-12-09T05:54:13.651Z,18.92
2022-12-09T05:56:44.657Z,21.23
2022-12-09T05:59:15.069Z,22.23
2022-12-09T06:01:42.112Z,18.52
2022-12-09T06:04:09.383Z,23.45
2022-12-09T06:06:36.995Z,17.33
2022-12-09T06:09:04.406Z,17.42
2022-12-09T06:11:32.671Z,17.48
2022-12-09T06:14:00.231Z,16.67
2022-12-09T06:16:27.468Z,20.08
2022-12-09T06:18:55.195Z,19.40
2022-12-09T06:21:22.808Z,18.65
2022-12-09T06:23:51.657Z,21.35
2022-12-09T06:26:27.804Z,22.65
2022-12-09T06:28:56.080Z,19.20
2022-12-09T06:31:23.982Z,18.67
2022-12-09T06:33:56.443Z,23.40
2022-12-09T06:36:26.069Z,22.05
2022-12-09T06:38:54.761Z,21.10
2022-12-09T06:41:21.960Z,27.45
2022-12-09T06:43:49.418Z,24.00
2022-12-09T06:46:23.513Z,21.42
2022-12-09T06:48:51.372Z,24.15
2022-12-09T06:51:19.221Z,29.52
2022-12-09T06:53:46.971Z,25.83
2022-12-09T06:56:15.575Z,23.55
2022-12-09T06:58:44.394Z,25.20
2022-12-09T07:01:18.267Z,28.00
2022-12-09T07:03:49.136Z,24.05
2022-12-09T07:06:27.862Z,24.95
2022-12-09T07:08:56.640Z,30.98
2022-12-09T07:11:24.722Z,25.52
2022-12-09T07:13:52.176Z,23.13
2022-12-09T07:16:19.384Z,22.65
2022-12-09T07:18:46.835Z,26.98
2022-12-09T07:21:16.901Z,28.77
2022-12-09T07:23:44.709Z,24.40
2022-12-09T07:26:12.525Z,26.15
2022-12-09T07:28:42.614Z,25.17
2022-12-09T07:31:36.571Z,22.90
2022-12-09T07:34:04.903Z,30.58
2022-12-09T07:36:34.377Z,23.25
2022-12-09T07:39:07.887Z,25.98
2022-12-09T07:41:35.320Z,26.63
2022-12-09T07:44:02.665Z,24.77
2022-12-09T07:46:29.955Z,25.95
2022-12-09T07:48:57.803Z,42.30
2022-12-09T07:51:26.007Z,46.55
2022-12-09T07:53:54.064Z,36.15
2022-12-09T07:56:22.574Z,37.28
2022-12-09T07:58:53.515Z,39.22
2022-12-09T08:01:27.532Z,28.48
2022-12-09T08:03:55.653Z,28.83
2022-12-09T08:06:25.130Z,25.90
2022-12-09T08:08:52.967Z,21.08
2022-12-09T08:11:22.674Z,26.65
2022-12-09T08:13:53.105Z,22.98
2022-12-09T08:16:22.017Z,25.15
2022-12-09T08:18:50.541Z,25.33
2022-12-09T08:21:24.209Z,24.77
2022-12-09T08:23:52.358Z,24.70
2022-12-09T08:26:23.030Z,27.00
2022-12-09T08:28:50.901Z,30.90
2022-12-09T08:31:24.634Z,25.65
2022-12-09T08:33:53.961Z,25.45
2022-12-09T08:36:24.096Z,24.10
2022-12-09T08:38:51.157Z,25.85
2022-12-09T08:41:37.537Z,24.63
2022-12-09T08:44:17.425Z,30.30
2022-12-09T08:46:47.343Z,29.13
2022-12-09T08:49:19.048Z,27.08
2022-12-09T08:51:47.517Z,26.17
2022-12-09T08:54:14.627Z,30.40
2022-12-09T08:56:48.466Z,27.42
2022-12-09T08:59:16.391Z,25.45
2022-12-09T09:01:43.888Z,28.58
2022-12-09T09:04:13.558Z,27.42
2022-12-09T09:06:43.351Z,25.08
2022-12-09T09:09:12.548Z,29.40
2022-12-09T09:11:44.029Z,28.10
2022-12-09T09:14:13.307Z,23.90
2022-12-09T09:16:42.013Z,25.85
2022-12-09T09:19:12.760Z,30.33
2022-12-09T09:21:40.134Z,24.27
2022-12-09T09:24:12.811Z,21.73
2022-12-09T09:26:42.559Z,23.67
2022-12-09T09:29:18.244Z,25.70
2022-12-09T09:31:48.731Z,31.38
2022-12-09T09:34:18.054Z,26.00
2022-12-09T09:36:49.164Z,25.83
2022-12-09T09:39:16.189Z,30.23
2022-12-09T09:42:07.742Z,38.95
2022-12-09T09:44:46.276Z,38.65
2022-12-09T09:47:13.341Z,29.63
2022-12-09T09:49:46.997Z,25.75
2022-12-09T09:52:19.891Z,31.55
2022-12-09T09:54:49.538Z,28.98
2022-12-09T09:57:32.796Z,33.72
2022-12-09T10:02:58.768Z,30.13
2022-12-09T10:05:40.256Z,55.13
2022-12-09T10:08:46.935Z,36.88
2022-12-09T10:11:17.247Z,31.17
2022-12-09T10:13:51.674Z,33.38
2022-12-09T10:16:24.003Z,31.08
2022-12-09T10:19:24.629Z,35.28
2022-12-09T10:21:54.708Z,30.85
2022-12-09T10:24:47.908Z,34.67
2022-12-09T10:27:34.376Z,33.13
2022-12-09T10:30:11.590Z,31.25
2022-12-09T10:32:40.321Z,32.35
2022-12-09T10:35:26.936Z,28.35
2022-12-09T10:38:13.290Z,32.33
2022-12-09T10:40:46.968Z,28.67
2022-12-09T10:43:44.218Z,30.27
2022-12-09T10:46:24.339Z,26.10
2022-12-09T10:48:59.202Z,30.98
2022-12-09T10:51:27.425Z,25.77
2022-12-09T10:53:59.099Z,28.02
2022-12-09T10:56:30.028Z,26.73
2022-12-09T10:59:21.685Z,29.83
2022-12-09T11:01:58.511Z,28.35
2022-12-09T11:04:46.137Z,30.45
2022-12-09T11:07:25.015Z,26.38
2022-12-09T11:10:09.529Z,31.90
2022-12-09T11:12:44.149Z,29.67
2022-12-09T11:15:28.685Z,31.63
2022-12-09T11:18:00.555Z,32.83
2022-12-09T11:20:33.674Z,32.40
2022-12-09T11:23:13.386Z,32.63
2022-12-09T11:25:56.423Z,28.65
2022-12-09T11:28:33.012Z,30.02
2022-12-09T11:31:28.383Z,34.00
2022-12-09T11:34:08.425Z,34.35
2022-12-09T11:36:43.682Z,28.65
2022-12-09T11:39:32.939Z,32.80
2022-12-09T11:42:19.821Z,30.90
2022-12-09T11:45:07.210Z,29.50
2022-12-09T11:48:22.957Z,30.08
2022-12-09T11:50:42.364Z,28.67
2022-12-09T11:53:30.760Z,30.50
2022-12-09T11:56:23.005Z,30.75
2022-12-09T11:59:02.357Z,35.05
2022-12-09T12:01:48.280Z,33.63
2022-12-09T12:04:18.532Z,30.40
2022-12-09T12:06:56.763Z,30.15
2022-12-09T12:09:55.198Z,32.05
2022-12-09T12:12:39.112Z,39.28
2022-12-09T12:15:55.396Z,29.70
2022-12-09T12:18:23.081Z,34.70
2022-12-09T12:21:07.805Z,29.25
2022-12-09T12:23:55.784Z,29.80
2022-12-09T12:26:33.297Z,33.53
2022-12-09T12:29:08.389Z,33.50
2022-12-09T12:31:59.235Z,28.55
2022-12-09T12:34:43.231Z,31.30
2022-12-09T12:37:21.892Z,31.40
2022-12-09T12:40:26.381Z,29.42
2022-12-09T12:43:41.806Z,26.15
2022-12-09T12:46:23.292Z,28.00
2022-12-09T12:49:08.687Z,27.08
2022-12-09T12:51:54.423Z,26.52
2022-12-09T12:54:21.488Z,27.30
2022-12-09T12:57:13.783Z,25.30
2022-12-09T12:59:57.520Z,25.92
2022-12-09T13:02:44.563Z,23.98
2022-12-09T13:05:22.897Z,24.52
2022-12-09T13:07:58.917Z,25.15
2022-12-09T13:10:54.961Z,25.00
2022-12-09T13:13:48.413Z,23.23
2022-12-09T13:16:39.159Z,23.25
2022-12-09T13:19:13.844Z,22.13
2022-12-09T13:21:41.146Z,21.95
2022-12-09T13:24:27.128Z,18.85
2022-12-09T13:27:23.401Z,19.05
2022-12-09T13:30:10.035Z,25.73
2022-12-09T13:32:43.361Z,21.98
2022-12-09T13:35:18.864Z,26.10
2022-12-09T13:37:45.644Z,26.98
2022-12-09T13:40:39.101Z,21.58
2022-12-09T13:43:17.574Z,21.15
2022-12-09T13:45:44.409Z,23.95
2022-12-09T13:48:16.641Z,25.63
2022-12-09T13:53:21.109Z,22.25
2022-12-09T13:55:58.041Z,24.45
2022-12-09T13:58:37.645Z,33.00
2022-12-09T14:01:26.529Z,21.95
2022-12-09T14:03:59.189Z,22.00
2022-12-09T14:06:44.668Z,29.90
2022-12-09T14:09:23.364Z,29.17
2022-12-09T14:11:52.353Z,32.95
2022-12-09T14:14:25.306Z,30.92
2022-12-09T14:19:25.438Z,32.85
2022-12-09T14:22:17.760Z,33.03
2022-12-09T14:24:55.676Z,35.38
2022-12-09T14:27:27.471Z,32.05
2022-12-09T14:30:23.422Z,36.22
2022-12-09T14:32:50.133Z,37.47
2022-12-09T14:35:22.387Z,32.47
2022-12-09T14:38:00.826Z,34.30
2022-12-09T14:40:42.969Z,32.42
2022-12-09T14:43:25.170Z,35.13
2022-12-09T14:46:01.876Z,37.77
2022-12-09T14:48:34.846Z,41.90
2022-12-09T14:53:58.140Z,33.95
2022-12-09T14:56:26.774Z,43.60
2022-12-09T14:59:03.022Z,44.55
2022-12-09T15:01:30.094Z,42.10
2022-12-09T15:03:59.170Z,43.20
2022-12-09T15:06:27.042Z,44.88
2022-12-09T15:08:56.553Z,45.95
2022-12-09T15:11:31.566Z,40.47
2022-12-09T15:14:20.980Z,44.97
2022-12-09T15:16:50.938Z,49.65
2022-12-09T15:19:51.611Z,53.65
2022-12-09T15:22:33.816Z,48.10
2022-12-09T15:25:02.935Z,48.85
2022-12-09T15:27:29.964Z,47.70
2022-12-09T15:30:09.200Z,48.50
2022-12-09T15:32:39.423Z,49.53
2022-12-09T15:35:23.556Z,48.33
2022-12-09T15:37:52.765Z,44.13
2022-12-09T15:40:22.453Z,45.35
2022-12-09T15:42:56.241Z,43.92
2022-12-09T15:45:27.081Z,51.75
2022-12-09T15:48:03.092Z,42.15
2022-12-09T15:50:35.963Z,40.60
2022-12-09T15:53:16.721Z,42.45
2022-12-09T15:55:51.254Z,51.08
2022-12-09T15:58:27.015Z,47.83
2022-12-09T16:00:54.672Z,46.25
2022-12-09T16:03:33.058Z,55.72
2022-12-09T16:06:04.214Z,46.40
2022-12-09T16:08:37.581Z,47.30
2022-12-09T16:11:05.295Z,51.83
2022-12-09T16:13:32.469Z,57.80
2022-12-09T16:16:01.437Z,52.78
2022-12-09T16:18:52.168Z,52.03
2022-12-09T16:21:27.555Z,54.55
2022-12-09T16:24:04.423Z,59.28
2022-12-09T16:26:35.328Z,56.85
2022-12-09T16:29:14.192Z,57.38
2022-12-09T16:31:41.137Z,52.72
2022-12-09T16:34:22.136Z,61.85
2022-12-09T16:36:56.501Z,64.00
2022-12-09T16:39:26.264Z,63.97
2022-12-09T16:41:52.919Z,58.88
2022-12-09T16:44:27.089Z,63.28
2022-12-09T16:47:14.514Z,57.05
2022-12-09T16:49:44.345Z,64.90
2022-12-09T16:52:22.367Z,61.85
2022-12-09T16:54:50.568Z,61.58
2022-12-09T16:57:19.659Z,59.08
2022-12-09T16:59:47.012Z,65.00
2022-12-09T17:02:38.117Z,59.83
2022-12-09T17:05:06.056Z,60.88
2022-12-09T17:07:33.034Z,70.85
2022-12-09T17:09:59.790Z,69.25
2022-12-09T17:12:26.584Z,61.95
2022-12-09T17:14:53.518Z,65.53
2022-12-09T17:17:20.437Z,63.35
2022-12-09T17:19:47.294Z,69.68
2022-12-09T17:22:14.171Z,72.40
2022-12-09T17:24:40.988Z,64.90
2022-12-09T17:27:07.847Z,64.10
2022-12-09T17:29:34.660Z,67.45
2022-12-09T17:32:01.480Z,69.20
2022-12-09T17:34:28.360Z,65.95
2022-12-09T17:36:55.276Z,72.20
2022-12-09T17:39:24.573Z,70.80
2022-12-09T17:41:51.342Z,76.47
2022-12-09T17:44:18.137Z,76.20
2022-12-09T17:46:44.862Z,74.57
2022-12-09T17:49:11.633Z,80.10
2022-12-09T17:51:38.417Z,75.32
2022-12-09T17:54:05.574Z,80.13
2022-12-09T17:56:32.536Z,75.18
2022-12-09T17:59:02.805Z,78.60
2022-12-09T18:01:30.217Z,74.93
2022-12-09T18:04:04.415Z,74.43
2022-12-09T18:06:35.335Z,72.72
2022-12-09T18:09:04.073Z,73.53
2022-12-09T18:11:31.003Z,74.97
2022-12-09T18:13:58.305Z,84.60
2022-12-09T18:16:25.168Z,87.10
2022-12-09T18:18:52.409Z,79.60
2022-12-09T18:21:22.139Z,74.85
2022-12-09T18:23:49.022Z,90.38
2022-12-09T18:26:18.489Z,80.40
2022-12-09T18:28:45.499Z,80.25
2022-12-09T18:31:15.429Z,83.15
2022-12-09T18:33:42.861Z,83.72
2022-12-09T18:36:15.787Z,92.20
2022-12-09T18:38:43.120Z,84.70
2022-12-09T18:41:17.017Z,87.82
2022-12-09T18:43:46.783Z,93.07
2022-12-09T18:46:25.980Z,89.32
2022-12-09T18:49:01.343Z,86.93
2022-12-09T18:51:29.157Z,87.40
2022-12-09T18:53:58.452Z,91.15
2022-12-09T18:56:25.838Z,105.50
2022-12-09T18:59:09.513Z,100.88
2022-12-09T19:01:40.859Z,100.35
2022-12-09T19:04:12.854Z,86.53
2022-12-09T19:06:41.468Z,91.60
2022-12-09T19:09:11.679Z,87.80
2022-12-09T19:11:40.539Z,85.00
2022-12-09T19:14:08.732Z,91.40
2022-12-09T19:16:36.148Z,94.00
2022-12-09T19:19:09.209Z,90.65
2022-12-09T19:21:37.357Z,82.53
2022-12-09T19:24:04.305Z,81.50
2022-12-09T19:26:32.662Z,93.05
2022-12-09T19:29:05.911Z,91.32
2022-12-09T19:31:39.075Z,85.10
2022-12-09T19:34:17.546Z,84.82
2022-12-09T19:36:45.254Z,83.80
2022-12-09T19:39:13.787Z,94.63
2022-12-09T19:41:41.432Z,89.30
2022-12-09T19:44:09.834Z,79.90
2022-12-09T19:46:38.448Z,83.13
2022-12-09T19:49:05.495Z,79.18
2022-12-09T19:51:32.575Z,93.65
2022-12-09T19:54:02.161Z,92.75
2022-12-09T19:56:29.584Z,92.95
2022-12-09T19:58:57.132Z,78.35
2022-12-09T20:01:35.221Z,86.38
2022-12-09T20:04:46.893Z,85.72
2022-12-09T20:07:06.389Z,82.97
2022-12-09T20:09:35.150Z,94.80
2022-12-09T20:12:02.043Z,89.50
2022-12-09T20:14:28.870Z,94.95
2022-12-09T20:16:55.809Z,82.20
2022-12-09T20:19:25.029Z,92.60
2022-12-09T20:21:55.399Z,95.32
2022-12-09T20:24:26.635Z,90.22
2022-12-09T20:26:53.515Z,97.03
2022-12-09T20:29:20.317Z,89.80
2022-12-09T20:31:47.205Z,91.22
2022-12-09T20:34:18.904Z,90.72
2022-12-09T20:36:46.151Z,99.20
2022-12-09T20:39:20.968Z,103.53
2022-12-09T20:41:48.448Z,103.90
2022-12-09T20:44:16.079Z,97.25
2022-12-09T20:46:47.222Z,94.95
2022-12-09T20:49:14.106Z,101.68
2022-12-09T20:51:45.106Z,93.30
2022-12-09T20:54:12.641Z,94.68
2022-12-09T20:56:39.820Z,95.07
2022-12-09T20:59:08.742Z,94.00
2022-12-09T21:01:37.190Z,91.88
2022-12-09T21:04:06.434Z,106.97
2022-12-09T21:06:36.655Z,91.32
2022-12-09T21:09:06.658Z,101.88
2022-12-09T21:11:33.700Z,97.28
2022-12-09T21:14:02.699Z,91.72
2022-12-09T21:16:32.546Z,93.53
2022-12-09T21:19:05.760Z,89.82
2022-12-09T21:21:36.995Z,93.00
2022-12-09T21:24:04.622Z,95.57
2022-12-09T21:26:31.608Z,91.57
2022-12-09T21:29:00.543Z,100.85
2022-12-09T21:31:33.767Z,91.25
2022-12-09T21:34:03.449Z,91.05
2022-12-09T21:36:33.472Z,98.43
2022-12-09T21:39:01.405Z,83.65
2022-12-09T21:41:30.892Z,88.40
2022-12-09T21:43:58.040Z,97.93
2022-12-09T21:46:28.395Z,94.57
2022-12-09T21:49:02.981Z,119.05
2022-12-09T21:51:30.970Z,107.00
2022-12-09T21:53:57.738Z,94.55
2022-12-09T21:56:27.556Z,105.88
2022-12-09T21:58:56.650Z,107.20
2022-12-09T22:01:52.953Z,103.57
2022-12-09T22:04:19.841Z,94.88
2022-12-09T22:06:49.118Z,95.72
2022-12-09T22:09:17.606Z,101.22
2022-12-09T22:11:44.881Z,95.72
2022-12-09T22:14:12.115Z,110.13
2022-12-09T22:16:41.869Z,100.32
2022-12-09T22:19:13.732Z,99.95
2022-12-09T22:21:40.632Z,101.88
2022-12-09T22:24:09.225Z,109.72
2022-12-09T22:26:36.376Z,102.43
2022-12-09T22:29:05.731Z,111.65
2022-12-09T22:31:36.457Z,109.03
2022-12-09T22:34:07.359Z,100.38
2022-12-09T22:36:36.819Z,212.90
2022-12-09T22:39:06.896Z,111.63
2022-12-09T22:41:34.459Z,112.03
2022-12-09T22:44:01.510Z,112.82
2022-12-09T22:46:30.922Z,110.18
2022-12-09T22:49:01.686Z,102.88
2022-12-09T22:51:31.653Z,103.57
2022-12-09T22:53:59.366Z,101.82
2022-12-09T22:56:26.728Z,102.28
2022-12-09T22:58:54.277Z,96.00
2022-12-09T23:01:33.498Z,93.43
2022-12-09T23:04:01.171Z,95.13
2022-12-09T23:06:29.171Z,102.85
2022-12-09T23:08:56.755Z,95.18
2022-12-09T23:11:25.701Z,107.30
2022-12-09T23:13:53.387Z,101.57
2022-12-09T23:16:23.296Z,101.03
2022-12-09T23:18:51.429Z,97.85
2022-12-09T23:21:21.474Z,102.75
2022-12-09T23:23:48.379Z,97.68
2022-12-09T23:26:18.090Z,97.95
2022-12-09T23:28:47.626Z,96.00
2022-12-09T23:31:16.852Z,85.43
2022-12-09T23:33:45.149Z,92.35
2022-12-09T23:36:14.808Z,86.85
2022-12-09T23:38:42.094Z,91.57
2022-12-09T23:41:10.236Z,98.82
2022-12-09T23:43:38.390Z,87.30
2022-12-09T23:46:13.040Z,92.05
2022-12-09T23:48:42.793Z,102.38
2022-12-09T23:51:14.779Z,90.88
2022-12-09T23:53:43.329Z,91.25
2022-12-09T23:56:15.251Z,97.30
2022-12-09T23:58:42.825Z,102.97
